Time;durP1;ratioP1;P1;durP2;ratioP2;P2;SDS_P1;SDS_P2;PMS_P1;PMS_P2;Temp;Humidity;BMP_temperature;BMP_pressure;BME280_temperature;BME280_humidity;BME280_pressure;Samples;Min_cycle;Max_cycle;Signal;HPM_P1;HPM_P2
2021/09/28 00:00:55;;;;;;;;;4.50;3.00;;;;;22.51;43.10;101959.09;5028116;28;51100;-52
2021/09/28 00:03:21;;;;;;;;;3.25;2.50;;;;;22.50;43.04;101959.25;5015815;28;51234;-55
2021/09/28 00:05:48;;;;;;;;;2.00;2.00;;;;;22.48;43.21;101963.09;5025134;28;52776;-55
2021/09/28 00:08:13;;;;;;;;;4.75;1.75;;;;;22.47;43.55;101975.19;5015873;28;52800;-54
2021/09/28 00:10:39;;;;;;;;;2.75;2.75;;;;;22.45;43.19;101960.75;5021773;28;51131;-54
2021/09/28 00:13:06;;;;;;;;;3.75;2.00;;;;;22.45;43.20;101968.19;5023746;28;51106;-54
2021/09/28 00:15:32;;;;;;;;;4.00;3.00;;;;;22.42;43.84;101969.47;5015993;28;51148;-55
2021/09/28 00:17:57;;;;;;;;;2.00;2.00;;;;;22.41;43.19;101970.53;5015121;28;51959;-53
2021/09/28 00:20:23;;;;;;;;;3.50;2.75;;;;;22.40;43.59;101979.84;5019418;28;51252;-55
2021/09/28 00:22:53;;;;;;;;;5.50;3.00;;;;;22.40;43.48;101971.56;5026099;28;51077;-53
2021/09/28 00:25:19;;;;;;;;;3.00;3.00;;;;;22.39;43.30;101980.06;5016175;28;51237;-55
2021/09/28 00:27:45;;;;;;;;;2.50;2.50;;;;;22.39;43.40;101982.81;5037663;28;51875;-54
2021/09/28 00:30:10;;;;;;;;;2.50;2.00;;;;;22.38;43.39;101981.09;5033686;28;51089;-53
2021/09/28 00:32:36;;;;;;;;;5.00;3.00;;;;;22.37;43.26;101987.69;5030517;28;51136;-53
2021/09/28 00:35:01;;;;;;;;;3.00;2.75;;;;;22.36;43.57;101988.75;5015594;28;51186;-52
2021/09/28 00:37:27;;;;;;;;;3.00;3.00;;;;;22.36;43.33;101997.03;5015534;28;51212;-59
2021/09/28 00:39:52;;;;;;;;;3.50;3.00;;;;;22.34;43.74;101991.72;5016533;28;51122;-52
2021/09/28 00:42:18;;;;;;;;;2.50;2.50;;;;;22.33;43.78;101992.78;5015693;28;51212;-49
2021/09/28 00:44:44;;;;;;;;;3.00;2.00;;;;;22.32;43.84;101996.59;5015816;28;51193;-54
2021/09/28 00:47:11;;;;;;;;;3.00;2.00;;;;;22.33;43.32;101989.19;5018346;28;51659;-54
2021/09/28 00:49:45;;;;;;;;;3.50;2.50;;;;;22.30;43.31;101989.56;5029335;28;51216;-53
2021/09/28 00:52:12;;;;;;;;;2.00;2.00;;;;;22.29;43.24;101991.47;5018911;28;51134;-54
2021/09/28 00:54:39;;;;;;;;;2.00;2.00;;;;;22.29;43.40;101983.19;5019321;28;51288;-50
2021/09/28 00:57:06;;;;;;;;;3.75;2.00;;;;;22.27;43.30;101978.94;5019840;28;51098;-53
2021/09/28 00:59:34;;;;;;;;;5.50;3.25;;;;;22.27;43.24;101978.94;5020043;28;50894;-52
2021/09/28 01:01:59;;;;;;;;;2.50;2.50;;;;;22.26;43.41;101977.25;5022011;28;51082;-54
2021/09/28 01:04:25;;;;;;;;;3.75;1.75;;;;;22.24;43.54;101973.84;5019212;28;51081;-53
2021/09/28 01:06:51;;;;;;;;;2.25;2.00;;;;;22.23;43.89;101975.75;5018638;28;51830;-53
2021/09/28 01:09:16;;;;;;;;;1.50;1.50;;;;;22.22;43.95;101979.59;5020071;28;51244;-51
2021/09/28 01:11:41;;;;;;;;;4.00;3.25;;;;;22.22;43.67;101979.59;5026410;28;51140;-52
2021/09/28 01:14:08;;;;;;;;;3.00;3.00;;;;;22.19;43.85;101980.81;5019517;28;51173;-52
2021/09/28 01:16:34;;;;;;;;;4.75;4.50;;;;;22.21;44.05;101977.03;5018715;28;51943;-51
2021/09/28 01:19:00;;;;;;;;;1.50;1.50;;;;;22.19;43.73;101982.75;5018583;28;51192;-53
2021/09/28 01:21:28;;;;;;;;;3.00;3.00;;;;;22.17;43.43;101971.91;5018532;28;51014;-49
2021/09/28 01:23:53;;;;;;;;;7.75;4.25;;;;;22.17;43.89;101980.19;5030957;28;51364;-51
2021/09/28 01:26:26;;;;;;;;;2.25;2.25;;;;;22.18;44.30;101972.75;5036288;28;51110;-54
2021/09/28 01:28:53;;;;;;;;;4.75;3.50;;;;;22.17;43.78;101969.16;5036459;28;51119;-49
2021/09/28 01:31:19;;;;;;;;;6.00;4.00;;;;;22.16;44.31;101969.38;5034487;28;51068;-52
2021/09/28 01:33:44;;;;;;;;;5.00;4.00;;;;;22.15;44.16;101968.50;5025921;28;51042;-53
2021/09/28 01:36:10;;;;;;;;;3.00;3.00;;;;;22.16;44.07;101977.63;5027303;28;52162;-52
2021/09/28 01:38:36;;;;;;;;;3.75;0.75;;;;;22.14;43.85;101977.84;5036279;28;51396;-52
2021/09/28 01:41:01;;;;;;;;;2.50;2.50;;;;;22.13;44.10;101965.13;5037707;28;51134;-53
2021/09/28 01:43:27;;;;;;;;;4.00;4.00;;;;;22.13;44.45;101965.13;5022345;28;51241;-53
2021/09/28 01:45:57;;;;;;;;;4.00;4.00;;;;;22.12;44.19;101957.91;5019260;28;51697;-52
2021/09/28 01:48:29;;;;;;;;;5.50;5.00;;;;;22.12;44.17;101954.28;5017849;28;51082;-54
2021/09/28 01:50:55;;;;;;;;;5.00;4.00;;;;;22.12;44.34;101959.81;5018164;28;51062;-50
2021/09/28 01:53:20;;;;;;;;;4.25;3.50;;;;;22.10;44.11;101951.75;5033525;28;50989;-52
2021/09/28 01:55:45;;;;;;;;;3.00;3.00;;;;;22.10;44.69;101959.16;5036885;28;51881;-53
2021/09/28 01:58:11;;;;;;;;;6.25;4.00;;;;;22.08;44.20;101951.06;5036001;28;50950;-54
2021/09/28 02:00:36;;;;;;;;;7.75;5.00;;;;;22.08;44.49;101962.09;5029746;28;51095;-52
2021/09/28 02:03:01;;;;;;;;;3.75;3.75;;;;;22.08;44.38;101958.50;5017956;28;51396;-54
2021/09/28 02:05:27;;;;;;;;;4.75;4.75;;;;;22.06;44.27;101950.44;5027611;28;50951;-53
2021/09/28 02:07:52;;;;;;;;;5.75;3.75;;;;;22.05;44.45;101943.19;5018978;28;51077;-49
2021/09/28 02:10:18;;;;;;;;;4.00;4.00;;;;;22.04;44.80;101941.47;5024452;28;50997;-51
2021/09/28 02:12:44;;;;;;;;;6.00;5.00;;;;;22.04;44.78;101937.88;5035676;28;51329;-52
2021/09/28 02:15:10;;;;;;;;;3.75;3.75;;;;;22.04;44.28;101935.13;5017654;28;51994;-51
2021/09/28 02:17:35;;;;;;;;;3.75;3.75;;;;;22.04;44.70;101932.34;5034325;28;51442;-53
2021/09/28 02:20:01;;;;;;;;;6.50;5.00;;;;;22.03;44.45;101936.19;5036744;28;51138;-51
2021/09/28 02:22:26;;;;;;;;;4.00;3.75;;;;;22.02;44.91;101932.56;5037089;28;51025;-52
2021/09/28 02:24:52;;;;;;;;;4.75;4.75;;;;;22.00;45.00;101931.94;5036673;28;51112;-53
2021/09/28 02:27:18;;;;;;;;;5.50;3.25;;;;;22.00;45.06;101933.84;5035885;28;51226;-53
2021/09/28 02:29:43;;;;;;;;;5.00;5.00;;;;;21.99;45.05;101929.34;5037020;28;51048;-52
2021/09/28 02:32:08;;;;;;;;;5.50;4.75;;;;;21.98;44.67;101922.13;5028436;28;51026;-53
2021/09/28 02:34:35;;;;;;;;;5.75;4.00;;;;;21.98;45.00;101927.66;5017909;28;51051;-53
2021/09/28 02:37:03;;;;;;;;;4.50;4.25;;;;;21.97;45.03;101926.81;5018789;28;51114;-53
2021/09/28 02:39:28;;;;;;;;;7.75;4.00;;;;;21.96;45.01;101921.50;5017302;28;51243;-53
2021/09/28 02:41:54;;;;;;;;;3.50;3.50;;;;;21.95;44.68;101931.69;5033585;28;51013;-52
2021/09/28 02:44:19;;;;;;;;;3.50;3.00;;;;;21.94;45.16;101924.47;5035282;28;51989;-53
2021/09/28 02:46:45;;;;;;;;;3.25;3.00;;;;;21.94;44.62;101924.47;5035070;28;51156;-53
2021/09/28 02:49:10;;;;;;;;;4.75;4.00;;;;;21.93;45.23;101920.00;5036290;28;51087;-52
2021/09/28 02:51:36;;;;;;;;;3.75;2.75;;;;;21.93;44.59;101914.50;5025361;28;51084;-53
2021/09/28 02:54:01;;;;;;;;;6.00;4.75;;;;;21.92;45.25;101917.47;5027001;28;51877;-53
2021/09/28 02:56:26;;;;;;;;;4.50;4.25;;;;;21.89;44.95;101914.06;5035014;28;51066;-52
2021/09/28 02:58:52;;;;;;;;;4.75;2.25;;;;;21.89;45.09;101904.94;5018791;28;51860;-53
2021/09/28 03:01:17;;;;;;;;;4.75;3.75;;;;;21.88;44.67;101900.44;5017394;28;51194;-54
2021/09/28 03:03:42;;;;;;;;;4.75;4.25;;;;;21.87;45.09;101905.13;5016475;28;51731;-49
2021/09/28 03:06:08;;;;;;;;;4.50;4.50;;;;;21.86;45.15;101906.19;5018309;28;51072;-53
2021/09/28 03:08:33;;;;;;;;;5.75;4.00;;;;;21.87;44.72;101912.53;5035148;28;51165;-53
2021/09/28 03:10:59;;;;;;;;;5.50;4.75;;;;;21.84;45.23;101913.81;5036483;28;51361;-54
2021/09/28 03:13:24;;;;;;;;;4.50;4.00;;;;;21.84;44.77;101911.06;5029849;28;51045;-53
2021/09/28 03:15:49;;;;;;;;;4.25;4.25;;;;;21.82;44.80;101913.19;5020613;28;51112;-52
2021/09/28 03:18:15;;;;;;;;;5.75;4.25;;;;;21.82;44.72;101907.66;5018108;28;51248;-53
2021/09/28 03:20:41;;;;;;;;;4.00;4.00;;;;;21.80;44.93;101908.94;5024930;28;51070;-53
2021/09/28 03:23:06;;;;;;;;;3.75;3.75;;;;;21.81;44.68;101918.91;5016438;28;51968;-54
2021/09/28 03:25:32;;;;;;;;;3.50;3.50;;;;;21.79;45.38;101918.25;5017818;28;50997;-51
2021/09/28 03:27:58;;;;;;;;;3.50;3.50;;;;;21.79;45.05;101921.03;5028134;28;51076;-53
2021/09/28 03:30:23;;;;;;;;;4.00;3.50;;;;;21.79;44.87;101912.75;5016917;28;51385;-56
2021/09/28 03:32:49;;;;;;;;;5.50;5.25;;;;;21.78;44.83;101905.50;5016298;28;51934;-52
2021/09/28 03:35:14;;;;;;;;;3.25;3.25;;;;;21.76;45.07;101907.63;5017534;28;51152;-52
2021/09/28 03:37:42;;;;;;;;;5.75;5.75;;;;;21.75;45.45;101905.91;5029567;28;51450;-53
2021/09/28 03:40:11;;;;;;;;;4.75;4.25;;;;;21.74;44.69;101907.81;5034487;28;52282;-53
2021/09/28 03:42:37;;;;;;;;;3.75;3.25;;;;;21.73;44.98;101902.53;5034452;28;51136;-52
2021/09/28 03:45:04;;;;;;;;;3.00;3.00;;;;;21.73;45.00;101899.75;5023994;28;51120;-54
2021/09/28 03:47:29;;;;;;;;;4.50;3.75;;;;;21.72;45.38;101900.81;5023812;28;51092;-53
2021/09/28 03:49:54;;;;;;;;;4.00;4.00;;;;;21.72;45.12;101898.06;5017479;28;51430;-53
2021/09/28 03:52:20;;;;;;;;;3.50;3.50;;;;;21.70;45.35;101900.19;5016149;28;51663;-54
2021/09/28 03:54:45;;;;;;;;;3.00;3.00;;;;;21.69;45.38;101899.34;5017220;28;51084;-54
2021/09/28 03:57:10;;;;;;;;;2.00;2.00;;;;;21.68;45.08;101889.38;5018533;28;51312;-54
2021/09/28 03:59:36;;;;;;;;;3.50;3.00;;;;;21.67;45.45;101893.16;5034696;28;51256;-52
2021/09/28 04:02:01;;;;;;;;;3.50;3.00;;;;;21.67;45.13;101884.88;5025827;28;51455;-53
2021/09/28 04:04:27;;;;;;;;;5.00;3.25;;;;;21.66;45.19;101891.44;5034346;28;51307;-53
2021/09/28 04:06:52;;;;;;;;;4.00;3.50;;;;;21.66;45.56;101896.13;5018867;28;51063;-54
2021/09/28 04:09:17;;;;;;;;;3.00;3.00;;;;;21.65;45.30;101903.53;5021983;28;51017;-55
2021/09/28 04:11:43;;;;;;;;;5.00;3.50;;;;;21.64;45.46;101909.25;5034929;28;51013;-54
2021/09/28 04:14:09;;;;;;;;;3.75;3.75;;;;;21.63;45.53;101908.41;5022264;28;51077;-54
2021/09/28 04:16:36;;;;;;;;;4.75;4.75;;;;;21.62;45.09;101906.72;5016201;28;51287;-53
2021/09/28 04:19:02;;;;;;;;;5.25;4.25;;;;;21.61;45.32;101914.13;5026841;28;51235;-54
2021/09/28 04:21:28;;;;;;;;;3.00;3.00;;;;;21.60;45.31;101912.44;5026231;28;51892;-55
2021/09/28 04:23:53;;;;;;;;;6.00;6.00;;;;;21.59;45.09;101910.75;5021181;28;51080;-55
2021/09/28 04:26:19;;;;;;;;;3.00;3.00;;;;;21.57;45.16;101910.09;5037862;28;51175;-52
2021/09/28 04:28:45;;;;;;;;;4.50;4.50;;;;;21.57;45.52;101909.22;5016017;28;51163;-52
2021/09/28 04:31:14;;;;;;;;;3.00;3.00;;;;;21.57;45.23;101915.59;5021787;28;51042;-55
2021/09/28 04:33:39;;;;;;;;;5.00;3.50;;;;;21.56;45.62;101915.78;5033373;28;50909;-53
2021/09/28 04:36:05;;;;;;;;;2.75;2.00;;;;;21.55;45.67;101911.34;5019097;28;51253;-55
2021/09/28 04:38:30;;;;;;;;;3.25;2.75;;;;;21.54;45.56;101909.63;5034982;28;51134;-55
2021/09/28 04:40:55;;;;;;;;;2.25;2.25;;;;;21.53;45.34;101903.28;5032566;28;52967;-55
2021/09/28 04:43:21;;;;;;;;;3.00;3.00;;;;;21.52;45.57;101914.50;5032674;28;51123;-54
2021/09/28 04:45:46;;;;;;;;;3.75;3.00;;;;;21.52;45.68;101911.75;5018007;28;51068;-55
2021/09/28 04:48:11;;;;;;;;;5.00;4.00;;;;;21.50;45.45;101900.94;5026289;28;51434;-53
2021/09/28 04:50:37;;;;;;;;;3.00;3.00;;;;;21.50;45.14;101902.84;5030680;28;51014;-53
2021/09/28 04:53:02;;;;;;;;;3.75;3.75;;;;;21.49;45.08;101906.66;5023152;28;51169;-53
2021/09/28 04:55:28;;;;;;;;;5.25;4.00;;;;;21.49;45.04;101895.63;5015996;28;51051;-54
2021/09/28 04:57:54;;;;;;;;;4.00;3.00;;;;;21.48;44.99;101905.81;5033220;28;51100;-54
2021/09/28 05:00:19;;;;;;;;;5.00;3.00;;;;;21.45;44.93;101903.44;5019399;28;51792;-55
2021/09/28 05:02:44;;;;;;;;;5.50;3.00;;;;;21.45;45.52;101910.84;5021461;28;51501;-54
2021/09/28 05:05:10;;;;;;;;;3.00;2.00;;;;;21.45;44.92;101911.69;5015507;28;51048;-54
2021/09/28 05:07:35;;;;;;;;;3.25;3.25;;;;;21.45;45.38;101902.56;5031485;28;51142;-53
2021/09/28 05:10:00;;;;;;;;;4.00;3.75;;;;;21.43;44.89;101901.94;5034419;28;51491;-55
2021/09/28 05:12:26;;;;;;;;;3.00;3.00;;;;;21.42;44.89;101903.84;5029034;28;51164;-55
2021/09/28 05:14:51;;;;;;;;;3.25;3.00;;;;;21.41;45.38;101893.03;5048059;28;51143;-53
2021/09/28 05:17:16;;;;;;;;;2.25;2.25;;;;;21.42;45.59;101900.25;5022906;28;51270;-55
2021/09/28 05:19:42;;;;;;;;;1.50;1.50;;;;;21.41;45.51;101909.56;5030041;28;51148;-54
2021/09/28 05:22:07;;;;;;;;;3.75;3.00;;;;;21.43;45.33;101908.31;5033629;28;51020;-54
2021/09/28 05:24:32;;;;;;;;;2.00;2.00;;;;;21.43;45.85;101907.44;5019080;28;51133;-53
2021/09/28 05:26:58;;;;;;;;;4.75;3.00;;;;;21.43;45.58;101902.78;5019540;28;51280;-58
2021/09/28 05:29:23;;;;;;;;;2.00;2.00;;;;;21.42;45.99;101903.00;5026485;28;51801;-56
2021/09/28 05:31:49;;;;;;;;;2.25;1.75;;;;;21.43;45.85;101907.44;5024084;28;52985;-52
2021/09/28 05:34:15;;;;;;;;;1.25;1.25;;;;;21.43;46.38;101908.31;5022604;28;51216;-55
2021/09/28 05:36:41;;;;;;;;;3.00;3.00;;;;;21.44;46.98;101909.16;5017635;28;51313;-56
2021/09/28 05:39:07;;;;;;;;;2.00;2.00;;;;;21.47;47.23;101906.00;5026866;28;51957;-57
2021/09/28 05:41:32;;;;;;;;;2.50;2.00;;;;;21.47;46.81;101893.06;5034103;28;51074;-56
2021/09/28 05:43:58;;;;;;;;;1.75;1.75;;;;;21.48;47.39;101891.16;5028764;28;51088;-56
2021/09/28 05:46:24;;;;;;;;;2.00;2.00;;;;;21.50;47.31;101884.38;5027826;28;51217;-56
2021/09/28 05:48:49;;;;;;;;;4.50;2.00;;;;;21.50;46.81;101889.91;5027653;28;51890;-57
2021/09/28 05:51:19;;;;;;;;;2.25;2.25;;;;;21.52;47.07;101882.28;5025704;28;52599;-56
2021/09/28 05:53:45;;;;;;;;;2.00;2.00;;;;;21.52;47.30;101871.25;5025114;28;51346;-55
2021/09/28 05:56:15;;;;;;;;;2.00;2.00;;;;;21.54;46.72;101873.78;5030203;28;51985;-56
2021/09/28 05:58:41;;;;;;;;;2.00;0.50;;;;;21.56;47.57;101871.69;5021958;28;51084;-54
2021/09/28 06:01:06;;;;;;;;;1.75;1.75;;;;;21.55;47.76;101870.81;5022435;28;51260;-56
2021/09/28 06:03:32;;;;;;;;;2.50;2.00;;;;;21.57;47.29;101878.88;5036524;28;51225;-56
2021/09/28 06:05:57;;;;;;;;;4.25;2.50;;;;;21.58;47.87;101877.88;5028445;28;51111;-55
2021/09/28 06:08:23;;;;;;;;;3.00;2.25;;;;;21.60;47.50;101887.63;5025141;28;51046;-57
2021/09/28 06:10:48;;;;;;;;;3.25;2.75;;;;;21.61;47.96;101883.81;5026162;28;51082;-55
2021/09/28 06:13:14;;;;;;;;;2.00;1.50;;;;;21.62;47.92;101879.13;5031004;28;51268;-57
2021/09/28 06:15:40;;;;;;;;;4.00;2.00;;;;;21.63;47.69;101878.09;5025808;28;51309;-57
2021/09/28 06:18:05;;;;;;;;;4.50;3.25;;;;;21.65;48.79;101886.16;5031769;28;52448;-56
2021/09/28 06:20:30;;;;;;;;;4.50;2.50;;;;;21.67;49.10;101895.91;5025379;28;51174;-58
2021/09/28 06:22:56;;;;;;;;;2.25;2.25;;;;;21.69;48.67;101893.81;5021611;28;51310;-58
2021/09/28 06:25:21;;;;;;;;;1.00;1.00;;;;;21.72;49.21;101895.31;5031147;28;51334;-58
2021/09/28 06:27:47;;;;;;;;;3.00;3.00;;;;;21.73;49.21;101897.84;5040125;28;51922;-58
2021/09/28 06:30:13;;;;;;;;;2.00;1.50;;;;;21.75;49.21;101897.66;5031167;28;51044;-59
2021/09/28 06:32:38;;;;;;;;;5.75;2.00;;;;;21.76;48.80;101894.69;5037233;28;51266;-58
2021/09/28 06:35:04;;;;;;;;;3.00;2.75;;;;;21.77;48.97;101896.38;5033377;28;51335;-58
2021/09/28 06:37:30;;;;;;;;;2.25;2.25;;;;;21.79;48.78;101898.97;5029000;28;51136;-59
2021/09/28 06:39:55;;;;;;;;;4.25;2.00;;;;;21.81;48.54;101905.09;5032206;28;51232;-58
2021/09/28 06:42:20;;;;;;;;;4.00;3.75;;;;;21.81;48.66;101900.44;5025661;28;51111;-58
2021/09/28 06:44:46;;;;;;;;;2.50;2.00;;;;;21.82;48.65;101904.06;5037416;28;51314;-56
2021/09/28 06:47:11;;;;;;;;;4.25;3.00;;;;;21.82;47.92;101899.38;5032632;28;52708;-57
2021/09/28 06:49:36;;;;;;;;;5.00;4.00;;;;;21.83;48.16;101898.31;5021951;28;51241;-57
2021/09/28 06:52:02;;;;;;;;;3.75;3.00;;;;;21.83;47.94;101898.31;5022024;28;51159;-57
2021/09/28 06:54:27;;;;;;;;;5.00;3.50;;;;;21.85;48.50;101896.19;5021207;28;51271;-57
2021/09/28 06:56:53;;;;;;;;;6.50;5.00;;;;;21.85;48.04;101896.19;5033064;28;51788;-58
2021/09/28 06:59:18;;;;;;;;;5.50;2.75;;;;;21.86;48.15;101888.78;5027964;28;51446;-56
2021/09/28 07:01:44;;;;;;;;;4.25;3.25;;;;;21.84;48.36;101889.00;5026309;28;51472;-57
2021/09/28 07:04:10;;;;;;;;;6.00;3.00;;;;;21.87;47.79;101893.22;5026031;28;52748;-57
2021/09/28 07:06:35;;;;;;;;;7.00;4.50;;;;;21.88;47.78;101895.81;5028502;28;51881;-56
2021/09/28 07:09:01;;;;;;;;;4.00;4.00;;;;;21.89;47.95;101882.88;5020329;28;51053;-57
2021/09/28 07:11:27;;;;;;;;;5.75;4.00;;;;;21.89;47.43;101883.72;5016121;28;51111;-55
2021/09/28 07:13:52;;;;;;;;;4.75;3.75;;;;;21.89;47.58;101878.19;5032960;28;51054;-56
2021/09/28 07:16:19;;;;;;;;;6.50;4.00;;;;;21.90;47.67;101881.81;5015455;28;52742;-55
2021/09/28 07:18:44;;;;;;;;;4.75;3.25;;;;;21.89;47.58;101883.72;5018135;28;51201;-56
2021/09/28 07:21:10;;;;;;;;;5.50;4.75;;;;;21.90;47.13;101890.09;5028185;28;51955;-59
2021/09/28 07:23:37;;;;;;;;;4.75;3.75;;;;;21.89;47.60;101888.38;5016594;28;51248;-57
2021/09/28 07:26:03;;;;;;;;;7.75;5.00;;;;;21.90;47.71;101888.19;5019241;28;51326;-57
2021/09/28 07:28:29;;;;;;;;;5.75;4.25;;;;;21.89;47.25;101885.63;5025435;28;51271;-57
2021/09/28 07:30:54;;;;;;;;;7.25;6.25;;;;;21.90;47.25;101879.06;5025138;28;51037;-58
2021/09/28 07:33:19;;;;;;;;;5.25;5.00;;;;;21.90;47.47;101884.56;5033151;28;50974;-57
2021/09/28 07:35:45;;;;;;;;;5.00;4.25;;;;;21.90;47.53;101882.66;5020344;28;50969;-56
2021/09/28 07:38:13;;;;;;;;;4.50;4.25;;;;;21.92;46.91;101889.88;5032185;28;51155;-57
2021/09/28 07:40:43;;;;;;;;;6.50;5.00;;;;;21.90;47.19;101882.66;5033428;28;51175;-57
2021/09/28 07:43:09;;;;;;;;;5.75;5.00;;;;;21.90;47.02;101877.13;5031030;28;51375;-57
2021/09/28 07:45:35;;;;;;;;;6.00;4.25;;;;;21.92;47.04;101878.84;5033292;28;52233;-56
2021/09/28 07:48:01;;;;;;;;;7.25;4.75;;;;;21.93;46.86;101875.03;5014941;28;51344;-57
2021/09/28 07:50:27;;;;;;;;;7.75;5.00;;;;;21.93;46.97;101875.03;5015258;28;51344;-57
2021/09/28 07:52:52;;;;;;;;;5.00;3.50;;;;;21.93;47.03;101875.03;5023492;28;51216;-56
2021/09/28 07:55:18;;;;;;;;;4.00;4.00;;;;;21.95;46.91;101879.25;5022995;28;51023;-57
2021/09/28 07:57:44;;;;;;;;;4.50;4.25;;;;;21.96;46.71;101875.44;5018362;28;51352;-57
2021/09/28 08:00:10;;;;;;;;;5.25;4.25;;;;;21.97;46.80;101887.31;5032213;28;50993;-57
2021/09/28 08:02:40;;;;;;;;;4.75;4.50;;;;;21.98;47.10;101878.00;5017616;28;51196;-57
2021/09/28 08:05:10;;;;;;;;;4.75;4.75;;;;;21.99;47.07;101879.69;5017811;28;51339;-57
2021/09/28 08:07:38;;;;;;;;;5.25;5.25;;;;;22.00;46.83;101887.78;5019631;28;51108;-57
2021/09/28 08:10:04;;;;;;;;;4.75;4.00;;;;;22.01;47.10;101878.44;5025452;28;51346;-57
2021/09/28 08:12:30;;;;;;;;;5.00;5.00;;;;;22.01;46.75;101872.94;5024824;28;50917;-56
2021/09/28 08:14:56;;;;;;;;;6.50;5.00;;;;;22.04;47.09;101879.94;5018161;28;52598;-57
2021/09/28 08:17:22;;;;;;;;;5.75;4.25;;;;;22.05;47.04;101881.63;5022074;28;51275;-57
2021/09/28 08:19:49;;;;;;;;;6.25;5.00;;;;;22.06;46.47;101888.84;5028314;28;51181;-57
2021/09/28 08:22:16;;;;;;;;;3.50;3.50;;;;;22.08;46.60;101889.50;5015214;28;51221;-57
2021/09/28 08:24:43;;;;;;;;;4.75;4.00;;;;;22.08;46.84;101898.63;5015259;28;51833;-58
2021/09/28 08:29:54;;;;;;;;;7.25;4.00;;;;;22.12;46.60;101896.34;5023032;28;51242;-56
2021/09/28 08:32:20;;;;;;;;;5.00;4.00;;;;;22.14;46.65;101902.50;5027330;28;50998;-57
2021/09/28 08:34:46;;;;;;;;;6.00;6.00;;;;;22.15;47.01;101901.44;5033762;28;52294;-57
2021/09/28 08:37:12;;;;;;;;;8.00;5.50;;;;;22.16;46.88;101897.59;5030174;28;51319;-56
2021/09/28 08:39:38;;;;;;;;;5.50;5.50;;;;;22.17;46.34;101897.41;5016252;28;51290;-56
2021/09/28 08:42:03;;;;;;;;;6.00;4.75;;;;;22.19;46.36;101898.03;5015611;28;50988;-58
2021/09/28 08:44:29;;;;;;;;;5.50;3.00;;;;;22.21;46.85;101891.47;5024553;28;51226;-55
2021/09/28 08:46:54;;;;;;;;;6.50;4.25;;;;;22.24;46.72;101899.34;5020919;28;51126;-59
2021/09/28 08:49:20;;;;;;;;;6.00;4.00;;;;;22.26;46.73;101903.56;5030767;28;51767;-59
2021/09/28 08:51:47;;;;;;;;;6.00;4.75;;;;;22.29;46.92;101896.78;5032692;28;51210;-58
2021/09/28 08:54:12;;;;;;;;;7.00;5.00;;;;;22.32;46.31;101904.66;5026027;28;51159;-58
2021/09/28 08:56:38;;;;;;;;;5.00;4.75;;;;;22.32;46.57;101897.25;5017530;28;51088;-56
2021/09/28 08:59:07;;;;;;;;;4.50;4.00;;;;;22.34;46.27;101897.88;5014149;28;51158;-58
2021/09/28 09:01:35;;;;;;;;;6.00;4.00;;;;;22.36;46.55;101895.75;5014370;28;51390;-56
2021/09/28 09:04:18;;;;;;;;;7.00;5.00;;;;;22.40;46.55;101893.41;5032657;28;51820;-57
2021/09/28 09:06:45;;;;;;;;;7.50;4.00;;;;;22.41;46.09;101895.13;5032212;28;51037;-57
2021/09/28 09:09:15;;;;;;;;;5.00;4.00;;;;;22.44;46.45;101900.22;5032446;28;51127;-58
2021/09/28 09:11:42;;;;;;;;;5.50;5.25;;;;;22.46;46.11;101892.56;5024285;28;51199;-57
2021/09/28 09:14:19;;;;;;;;;4.75;4.75;;;;;22.50;46.61;101904.03;5017252;28;51072;-57
2021/09/28 09:16:46;;;;;;;;;5.25;4.50;;;;;22.51;46.48;101894.69;5024968;28;51192;-55
2021/09/28 09:19:26;;;;;;;;;6.00;5.00;;;;;22.53;46.50;101898.97;5022571;28;51008;-56
2021/09/28 09:22:00;;;;;;;;;7.25;5.25;;;;;22.55;46.45;101891.31;5025274;28;51093;-57
2021/09/28 09:24:49;;;;;;;;;4.75;4.75;;;;;22.57;46.38;101889.19;5018262;28;51915;-56
2021/09/28 09:27:17;;;;;;;;;5.50;4.50;;;;;22.59;45.86;101883.44;5025665;28;51153;-57
2021/09/28 09:29:43;;;;;;;;;5.75;3.00;;;;;22.59;46.33;101881.53;5024985;28;51287;-58
2021/09/28 09:32:10;;;;;;;;;5.00;5.00;;;;;22.61;46.16;101875.78;5027513;28;51268;-56
2021/09/28 09:34:36;;;;;;;;;3.75;3.75;;;;;22.62;45.87;101874.75;5030228;28;51183;-59
2021/09/28 09:37:05;;;;;;;;;5.00;5.00;;;;;22.63;45.93;101863.50;5029082;28;51119;-57
2021/09/28 09:39:48;;;;;;;;;7.50;5.75;;;;;22.64;45.62;101873.47;5020736;28;51297;-58
2021/09/28 09:42:15;;;;;;;;;6.00;5.00;;;;;22.65;46.19;101871.56;5021456;28;51356;-57
2021/09/28 09:44:45;;;;;;;;;5.50;5.00;;;;;22.65;46.05;101863.28;5025218;28;51306;-57
2021/09/28 09:47:31;;;;;;;;;4.25;2.75;;;;;22.67;46.17;101858.38;5029115;28;51889;-56
2021/09/28 09:50:12;;;;;;;;;4.75;4.75;;;;;22.68;45.71;101858.16;5018904;28;51472;-57
2021/09/28 09:52:54;;;;;;;;;5.75;4.00;;;;;22.70;45.96;101858.81;5027121;28;51327;-55
2021/09/28 09:55:31;;;;;;;;;5.50;4.25;;;;;22.72;45.69;101851.19;5026245;28;51134;-56
2021/09/28 09:57:58;;;;;;;;;4.00;4.00;;;;;22.73;45.48;101841.81;5027377;28;51536;-56
2021/09/28 10:00:24;;;;;;;;;4.00;4.00;;;;;22.74;45.30;101839.91;5036183;28;51295;-55
2021/09/28 10:02:50;;;;;;;;;7.00;4.50;;;;;22.73;45.67;101832.69;5033553;28;51406;-56
2021/09/28 10:05:16;;;;;;;;;6.00;4.00;;;;;22.74;45.89;101824.19;5032773;28;51904;-57
2021/09/28 10:07:42;;;;;;;;;3.75;2.75;;;;;22.75;45.14;101836.94;5020760;28;50970;-55
2021/09/28 10:10:13;;;;;;;;;3.25;3.25;;;;;22.75;45.28;101836.09;5016870;28;51033;-55
2021/09/28 10:12:39;;;;;;;;;5.00;5.00;;;;;22.76;45.63;101837.78;5027535;28;51259;-57
2021/09/28 10:15:13;;;;;;;;;3.75;3.75;;;;;22.77;45.31;101833.94;5025846;28;51965;-54
2021/09/28 10:17:41;;;;;;;;;3.75;3.75;;;;;22.77;45.61;101825.66;5029629;28;51004;-56
2021/09/28 10:20:10;;;;;;;;;3.00;3.00;;;;;22.78;45.03;101824.59;5032605;28;51388;-55
2021/09/28 10:22:35;;;;;;;;;3.50;3.00;;;;;22.79;45.44;101831.81;5028461;28;51090;-55
2021/09/28 10:25:22;;;;;;;;;4.75;3.25;;;;;22.79;45.25;101828.22;5020278;28;52434;-57
2021/09/28 10:27:55;;;;;;;;;3.00;3.00;;;;;22.80;45.38;101832.66;5031563;28;51417;-57
2021/09/28 10:30:35;;;;;;;;;4.75;3.75;;;;;22.81;45.26;101831.59;5026039;28;51174;-59
2021/09/28 10:33:02;;;;;;;;;4.00;3.00;;;;;22.81;44.83;101837.13;5018201;28;50995;-55
2021/09/28 10:35:29;;;;;;;;;4.50;4.50;;;;;22.82;44.74;101819.47;5018534;28;51184;-57
2021/09/28 10:38:01;;;;;;;;;5.00;3.00;;;;;22.83;45.07;101819.28;5017168;28;51126;-58
2021/09/28 10:40:26;;;;;;;;;6.00;5.75;;;;;22.85;44.77;101819.09;5022121;28;50971;-58
2021/09/28 10:43:15;;;;;;;;;3.00;3.00;;;;;22.86;44.91;101820.81;5034956;28;50935;-57
2021/09/28 10:45:40;;;;;;;;;3.50;3.50;;;;;22.87;44.78;101817.81;5033236;28;51375;-56
2021/09/28 10:48:18;;;;;;;;;3.00;2.25;;;;;22.88;44.91;101818.66;5033260;28;51109;-58
2021/09/28 10:50:46;;;;;;;;;3.50;3.00;;;;;22.88;44.83;101819.53;5026757;28;51443;-57
2021/09/28 10:53:20;;;;;;;;;4.75;3.75;;;;;22.89;44.81;101821.22;5016335;28;51207;-58
2021/09/28 10:56:02;;;;;;;;;7.25;7.00;;;;;22.91;45.17;101818.22;5017716;28;51020;-57
2021/09/28 10:58:29;;;;;;;;;5.00;5.00;;;;;22.91;46.54;101816.31;5034590;28;51179;-55
2021/09/28 11:00:54;;;;;;;;;4.25;3.00;;;;;22.91;46.17;101812.72;5022754;28;51106;-60
2021/09/28 11:03:42;;;;;;;;;9.25;5.00;;;;;22.93;46.23;101813.38;5021820;28;50977;-58
2021/09/28 11:06:09;;;;;;;;;6.25;5.25;;;;;22.93;46.63;101810.59;5026671;28;51091;-57
2021/09/28 11:08:36;;;;;;;;;6.00;6.00;;;;;22.93;46.51;101805.94;5015928;28;51076;-57
2021/09/28 11:11:04;;;;;;;;;3.75;3.00;;;;;22.95;46.55;101801.03;5023855;28;51155;-56
2021/09/28 11:13:35;;;;;;;;;5.00;4.75;;;;;22.97;46.60;101795.28;5015831;28;51034;-56
2021/09/28 11:16:04;;;;;;;;;6.00;5.00;;;;;22.97;46.60;101785.06;5017485;28;51173;-55
2021/09/28 11:18:31;;;;;;;;;5.25;4.00;;;;;22.98;46.23;101788.69;5028282;28;51455;-57
2021/09/28 11:21:11;;;;;;;;;7.00;4.00;;;;;22.99;46.26;101787.63;5019177;28;51198;-57
2021/09/28 11:23:37;;;;;;;;;4.50;3.75;;;;;22.99;46.10;101777.41;5029270;28;51222;-57
2021/09/28 11:26:04;;;;;;;;;4.00;4.00;;;;;23.00;46.06;101786.53;5024489;28;51251;-57